Time;durP1;ratioP1;P1;durP2;ratioP2;P2;SDS_P1;SDS_P2;PMS_P1;PMS_P2;Temp;Humidity;BMP_temperature;BMP_pressure;BME280_temperature;BME280_humidity;BME280_pressure;Samples;Min_cycle;Max_cycle;Signal;HPM_P1;HPM_P2
2022/09/28 00:04:54;;;;;;;10.07;5.57;;;18.80;43.90;;;;;;20834575;28;20478;-56
2022/09/28 00:14:56;;;;;;;8.88;3.67;;;18.50;44.90;;;;;;20835329;28;20049;-58
2022/09/28 00:24:57;;;;;;;7.72;2.15;;;18.50;45.10;;;;;;20833806;28;20540;-55
2022/09/28 00:34:59;;;;;;;5.80;2.03;;;18.20;44.80;;;;;;20832778;28;20053;-56
2022/09/28 00:45:01;;;;;;;6.55;2.00;;;17.80;45.60;;;;;;20833246;28;20357;-57
2022/09/28 00:55:05;;;;;;;3.42;1.52;;;17.70;46.20;;;;;;20831376;28;20414;-55
2022/09/28 01:05:09;;;;;;;9.45;2.28;;;17.70;46.10;;;;;;20831171;28;20480;-56
2022/09/28 01:15:12;;;;;;;9.03;1.97;;;17.60;47.10;;;;;;20830208;28;20049;-56
2022/09/28 01:25:25;;;;;;;4.18;1.88;;;17.50;47.10;;;;;;20830753;28;20655;-56
2022/09/28 01:35:47;;;;;;;7.63;2.22;;;17.40;47.20;;;;;;20829259;28;20502;-56
2022/09/28 01:45:59;;;;;;;4.45;1.50;;;17.50;47.30;;;;;;20830131;28;20058;-56
2022/09/28 01:56:16;;;;;;;8.43;2.58;;;17.30;47.30;;;;;;20812550;28;20053;-56
2022/09/28 02:06:25;;;;;;;5.63;2.10;;;17.10;47.90;;;;;;20828189;28;20052;-56
2022/09/28 02:16:46;;;;;;;6.70;1.52;;;17.10;48.30;;;;;;20827633;28;20065;-56
2022/09/28 02:26:50;;;;;;;7.72;1.45;;;17.00;48.30;;;;;;20829180;28;20136;-56
2022/09/28 02:36:53;;;;;;;9.65;1.98;;;16.70;48.80;;;;;;20841493;28;20140;-55
2022/09/28 02:47:03;;;;;;;6.72;1.50;;;16.70;49.20;;;;;;20840863;28;20103;-56
2022/09/28 02:57:11;;;;;;;9.05;2.00;;;16.70;49.10;;;;;;20840445;28;20050;-55
2022/09/28 03:07:29;;;;;;;5.05;2.30;;;16.80;49.20;;;;;;20839825;28;20489;-56
2022/09/28 03:17:32;;;;;;;6.30;1.80;;;16.80;49.20;;;;;;20838865;28;20049;-57
2022/09/28 03:27:35;;;;;;;7.63;2.50;;;16.80;49.30;;;;;;20839668;28;20390;-56
2022/09/28 03:37:37;;;;;;;10.13;2.45;;;17.00;49.70;;;;;;20837467;28;20053;-57
2022/09/28 03:47:44;;;;;;;8.57;2.50;;;17.00;49.00;;;;;;20835433;28;20053;-56
2022/09/28 03:57:53;;;;;;;6.95;2.65;;;17.10;47.40;;;;;;20837746;28;20056;-57
2022/09/28 04:07:56;;;;;;;10.52;2.58;;;17.10;47.30;;;;;;20834733;28;20103;-57
2022/09/28 04:17:58;;;;;;;8.35;2.20;;;17.00;47.50;;;;;;20834013;28;20049;-57
2022/09/28 04:38:22;;;;;;;8.18;4.15;;;16.90;48.80;;;;;;20832219;28;20045;-56
2022/09/28 04:48:28;;;;;;;6.45;1.90;;;16.80;48.50;;;;;;20831611;28;20049;-58
2022/09/28 04:58:31;;;;;;;3.85;1.05;;;16.60;50.00;;;;;;20831222;28;20383;-58
2022/09/28 05:08:34;;;;;;;5.10;1.88;;;16.30;50.40;;;;;;20830378;28;20387;-56
2022/09/28 05:18:36;;;;;;;5.72;1.67;;;16.00;51.30;;;;;;20831235;28;20128;-57
2022/09/28 05:28:38;;;;;;;7.88;1.60;;;16.00;51.60;;;;;;20829422;28;20053;-58
2022/09/28 05:38:39;;;;;;;5.20;1.80;;;15.70;52.20;;;;;;20828634;28;20482;-56
2022/09/28 05:48:40;;;;;;;7.88;2.10;;;15.60;52.30;;;;;;20828653;28;20130;-59
2022/09/28 05:58:42;;;;;;;4.45;1.98;;;15.60;52.40;;;;;;20828671;28;20049;-56
2022/09/28 06:08:45;;;;;;;7.53;2.25;;;15.40;53.20;;;;;;20839989;28;20107;-57
2022/09/28 06:18:47;;;;;;;7.38;2.08;;;15.30;53.10;;;;;;20843024;28;20049;-57
2022/09/28 06:28:48;;;;;;;6.80;2.15;;;15.20;53.60;;;;;;20841979;28;20532;-58
2022/09/28 06:38:50;;;;;;;71.05;10.25;;;15.20;53.20;;;;;;20841482;28;20050;-58
2022/09/28 06:48:53;;;;;;;10.02;2.97;;;15.50;52.90;;;;;;20840591;28;20049;-57
2022/09/28 06:58:54;;;;;;;9.35;3.10;;;15.60;52.90;;;;;;20840806;28;20049;-57
2022/09/28 07:08:58;;;;;;;7.55;2.75;;;15.70;52.40;;;;;;20839345;28;20092;-57
2022/09/28 07:19:00;;;;;;;15.67;3.50;;;16.10;52.10;;;;;;20838971;28;20048;-57
2022/09/28 07:29:02;;;;;;;20.65;4.30;;;16.40;51.50;;;;;;20837762;28;20498;-58
2022/09/28 07:39:04;;;;;;;18.23;4.57;;;16.50;51.10;;;;;;20837198;28;20137;-57
2022/09/28 07:49:06;;;;;;;15.55;5.30;;;16.60;50.80;;;;;;20836538;28;20103;-56
2022/09/28 07:59:07;;;;;;;17.10;4.43;;;16.90;50.00;;;;;;20835915;28;20053;-57
2022/09/28 08:09:09;;;;;;;13.38;4.70;;;17.20;49.40;;;;;;20834743;28;20089;-57
2022/09/28 08:19:12;;;;;;;12.10;3.78;;;17.60;48.70;;;;;;20834626;28;20048;-57
2022/09/28 08:29:14;;;;;;;10.45;3.80;;;17.90;48.70;;;;;;20833196;28;20394;-56
2022/09/28 08:39:15;;;;;;;6.25;1.65;;;18.40;48.50;;;;;;20833410;28;20049;-57
2022/09/28 08:49:28;;;;;;;3.90;1.30;;;18.80;48.50;;;;;;20831139;28;20057;-57
2022/09/28 08:59:58;;;;;;;3.07;1.10;;;19.10;48.60;;;;;;20831018;28;20506;-57
2022/09/28 09:10:34;;;;;;;4.20;0.80;;;19.50;47.50;;;;;;20826935;28;20099;-56
2022/09/28 09:20:48;;;;;;;3.60;1.45;;;19.70;47.00;;;;;;20829834;28;20057;-56
2022/09/28 09:31:35;;;;;;;4.28;0.93;;;20.00;46.70;;;;;;20830026;28;20057;-57
2022/09/28 09:42:11;;;;;;;1.80;0.80;;;20.20;46.40;;;;;;20838561;28;20383;-56
2022/09/28 09:52:32;;;;;;;2.30;0.77;;;20.50;45.00;;;;;;20844786;28;20050;-57
2022/09/28 10:02:34;;;;;;;3.50;0.80;;;20.70;44.40;;;;;;20843827;28;20053;-56
2022/09/28 10:12:38;;;;;;;3.20;0.83;;;20.90;43.60;;;;;;20843121;28;20099;-58
2022/09/28 10:22:40;;;;;;;4.47;1.55;;;21.10;43.60;;;;;;20842412;28;20501;-57
2022/09/28 10:32:44;;;;;;;7.97;4.35;;;21.20;43.50;;;;;;20840206;28;20127;-57
2022/09/28 10:42:46;;;;;;;2.33;1.27;;;21.50;43.10;;;;;;20821403;28;20053;-55
2022/09/28 10:52:48;;;;;;;2.13;0.93;;;21.90;43.00;;;;;;20838641;28;20042;-57
2022/09/28 11:02:51;;;;;;;2.53;0.73;;;22.10;42.10;;;;;;20837314;28;20092;-57
2022/09/28 11:12:53;;;;;;;;;;;22.20;42.10;;;;;;20837803;28;20128;-58
2022/09/28 11:23:16;;;;;;;3.20;1.67;;;22.20;41.80;;;;;;20824450;28;20365;-55
2022/09/28 11:33:31;;;;;;;4.60;1.33;;;22.40;41.80;;;;;;20835175;28;20064;-56
2022/09/28 11:43:42;;;;;;;3.25;1.00;;;22.40;41.20;;;;;;20835536;28;20067;-56
2022/09/28 11:53:53;;;;;;;59.30;52.95;;;22.70;40.80;;;;;;20821069;28;20048;-56
2022/09/28 12:04:01;;;;;;;8.90;6.55;;;22.90;40.80;;;;;;20798901;28;20482;-58
2022/09/28 12:14:06;;;;;;;6.70;2.10;;;23.10;39.60;;;;;;20832577;28;20375;-59
2022/09/28 12:24:39;;;;;;;2.35;1.20;;;23.10;39.90;;;;;;20833234;28;20049;-57
2022/09/28 12:34:42;;;;;;;8.57;1.80;;;22.70;39.80;;;;;;20580289;28;20483;-58
2022/09/28 12:45:09;;;;;;;;;;;22.50;40.20;;;;;;20580483;28;20050;-56
2022/09/28 12:55:19;;;;;;;1.63;0.75;;;22.50;40.10;;;;;;20576265;28;19926;-57
2022/09/28 13:06:04;;;;;;;2.35;1.00;;;22.70;39.20;;;;;;20658015;28;20132;-56
2022/09/28 13:16:44;;;;;;;2.03;0.90;;;22.60;38.80;;;;;;20830011;28;20463;-56
2022/09/28 13:26:48;;;;;;;3.00;1.70;;;23.00;37.00;;;;;;20828412;28;20472;-56
2022/09/28 13:37:18;;;;;;;1.52;0.82;;;23.00;37.00;;;;;;20828668;28;20059;-57
2022/09/28 13:47:31;;;;;;;2.30;0.90;;;23.00;37.10;;;;;;20657944;28;20051;-58
2022/09/28 13:57:45;;;;;;;3.97;0.80;;;23.00;37.50;;;;;;20657123;28;20049;-57
2022/09/28 14:08:17;;;;;;;1.85;0.93;;;23.20;37.30;;;;;;20656250;28;20054;-57
2022/09/28 14:18:25;;;;;;;4.60;1.00;;;23.10;37.60;;;;;;20706426;28;20095;-57
2022/09/28 14:28:30;;;;;;;1.25;0.75;;;23.20;37.40;;;;;;20836594;28;20053;-57
2022/09/28 14:49:19;;;;;;;2.08;0.70;;;23.50;36.50;;;;;;20836633;28;20049;-57
2022/09/28 14:59:25;;;;;;;4.22;2.30;;;23.30;36.90;;;;;;20834662;28;20060;-60
2022/09/28 15:09:34;;;;;;;4.03;1.17;;;23.30;37.00;;;;;;20922018;28;20049;-57
2022/09/28 15:19:48;;;;;;;6.47;3.33;;;23.40;36.30;;;;;;20920970;28;20049;-58
2022/09/28 15:30:17;;;;;;;1.80;1.20;;;23.40;35.80;;;;;;20919666;28;20088;-56
2022/09/28 15:40:40;;;;;;;1.42;0.77;;;23.30;35.00;;;;;;20919252;28;20053;-58
2022/09/28 15:51:09;;;;;;;2.60;1.37;;;23.30;36.10;;;;;;20918800;28;20402;-56
2022/09/28 16:01:27;;;;;;;3.08;2.15;;;23.20;35.20;;;;;;20917987;28;20044;-57
2022/09/28 16:11:38;;;;;;;1.70;0.80;;;23.10;34.80;;;;;;20916902;28;20077;-56
2022/09/28 16:21:45;;;;;;;2.65;0.95;;;23.10;34.80;;;;;;20916436;28;20045;-59
2022/09/28 16:31:51;;;;;;;1.13;0.50;;;23.10;35.50;;;;;;20769630;28;20085;-59
2022/09/28 16:41:58;;;;;;;1.17;0.65;;;22.80;35.30;;;;;;20750687;28;20049;-59
2022/09/28 16:52:00;;;;;;;2.38;1.10;;;22.70;35.00;;;;;;20751836;28;20045;-56
2022/09/28 17:02:10;;;;;;;3.70;2.60;;;22.80;38.40;;;;;;20772672;28;20046;-57
2022/09/28 17:12:19;;;;;;;1.63;0.88;;;22.90;36.40;;;;;;20716541;28;20100;-55
2022/09/28 17:22:21;;;;;;;3.05;0.88;;;22.80;36.00;;;;;;20768909;28;20049;-59
2022/09/28 17:32:23;;;;;;;3.07;0.70;;;22.70;34.90;;;;;;20829076;28;20548;-58
2022/09/28 17:42:25;;;;;;;2.05;0.85;;;22.50;35.40;;;;;;20828672;28;20508;-56
2022/09/28 17:52:26;;;;;;;3.47;2.38;;;22.30;35.80;;;;;;20829345;28;20482;-58
2022/09/28 18:02:28;;;;;;;4.70;2.90;;;22.30;39.10;;;;;;20837098;28;20056;-59
2022/09/28 18:12:30;;;;;;;1.90;0.90;;;22.30;35.50;;;;;;20845322;28;20088;-58
2022/09/28 18:22:32;;;;;;;2.93;1.63;;;22.10;35.60;;;;;;20843961;28;20079;-57
2022/09/28 18:32:35;;;;;;;2.33;0.80;;;21.80;35.00;;;;;;20843413;28;20136;-56
2022/09/28 18:42:38;;;;;;;1.95;0.68;;;21.70;35.40;;;;;;20843765;28;20447;-58
2022/09/28 18:52:42;;;;;;;2.63;1.40;;;21.70;35.30;;;;;;20841752;28;20080;-57
2022/09/28 19:02:44;;;;;;;2.85;1.58;;;21.60;35.90;;;;;;20841123;28;20045;-57
2022/09/28 19:12:45;;;;;;;1.35;0.60;;;21.40;36.80;;;;;;20838999;28;20382;-57
2022/09/28 19:22:50;;;;;;;1.08;0.60;;;21.30;36.90;;;;;;20839809;28;20478;-57
2022/09/28 19:32:51;;;;;;;2.05;0.90;;;21.20;37.50;;;;;;20838198;28;20093;-58
2022/09/28 19:42:53;;;;;;;2.03;0.70;;;21.10;38.20;;;;;;20837071;28;20120;-57
2022/09/28 19:52:55;;;;;;;3.40;1.10;;;21.00;38.50;;;;;;20836985;28;20401;-61
2022/09/28 20:02:57;;;;;;;4.33;1.10;;;21.00;38.60;;;;;;20836761;28;20103;-56
2022/09/28 20:12:59;;;;;;;1.52;0.80;;;20.90;38.80;;;;;;20834740;28;20049;-57
2022/09/28 20:23:01;;;;;;;8.20;1.30;;;20.90;39.00;;;;;;20834042;28;20433;-56
2022/09/28 20:33:06;;;;;;;1.65;0.95;;;20.80;39.30;;;;;;20833184;28;20089;-56
2022/09/28 20:43:08;;;;;;;1.50;0.70;;;20.90;39.70;;;;;;20832644;28;20049;-58
2022/09/28 20:53:10;;;;;;;1.67;0.68;;;20.70;40.40;;;;;;20832438;28;20064;-58
2022/09/28 21:03:11;;;;;;;2.75;0.80;;;20.50;41.00;;;;;;20831322;28;20053;-56
2022/09/28 21:13:13;;;;;;;3.13;0.88;;;20.50;41.30;;;;;;20831130;28;20183;-56
2022/09/28 21:23:16;;;;;;;1.50;0.60;;;20.50;41.60;;;;;;20830220;28;20054;-56
2022/09/28 21:33:18;;;;;;;2.63;0.80;;;20.40;41.90;;;;;;20829578;28;20128;-57
2022/09/28 21:43:20;;;;;;;2.33;0.75;;;20.20;42.30;;;;;;20830300;28;20439;-57
2022/09/28 21:53:27;;;;;;;0.88;0.47;;;20.20;42.10;;;;;;20829421;28;20103;-56
2022/09/28 22:03:31;;;;;;;1.20;0.70;;;20.10;42.30;;;;;;20830034;28;20418;-56
2022/09/28 22:13:35;;;;;;;1.48;0.52;;;20.00;42.90;;;;;;20829696;28;20050;-55
2022/09/28 22:23:38;;;;;;;2.83;0.90;;;19.90;43.80;;;;;;20828187;28;20050;-56
2022/09/28 22:33:40;;;;;;;2.43;0.60;;;19.90;44.00;;;;;;20827352;28;20053;-56
2022/09/28 22:43:42;;;;;;;2.03;0.60;;;19.80;44.20;;;;;;20828839;28;20049;-56
2022/09/28 22:53:44;;;;;;;2.80;1.05;;;19.80;44.50;;;;;;20842487;28;20533;-56
2022/09/28 23:03:47;;;;;;;2.63;1.20;;;19.70;45.00;;;;;;20841106;28;20513;-57
2022/09/28 23:13:54;;;;;;;4.30;1.83;;;19.70;45.00;;;;;;20841239;28;20593;-56
2022/09/28 23:24:00;;;;;;;1.95;1.10;;;19.60;45.80;;;;;;20840152;28;20057;-56
2022/09/28 23:34:04;;;;;;;1.17;0.70;;;19.50;46.10;;;;;;20839323;28;20060;-57
2022/09/28 23:44:06;;;;;;;2.58;0.60;;;19.50;46.50;;;;;;20838315;28;20140;-57
2022/09/28 23:54:08;;;;;;;1.73;0.50;;;19.30;47.00;;;;;;20837814;28;20061;-56
